createdAt,value
2023-08-12T00:01:31.237Z,17.25
2023-08-12T00:03:59.256Z,17.23
2023-08-12T00:06:27.339Z,17.25
2023-08-12T00:08:55.311Z,17.23
2023-08-12T00:11:23.261Z,17.23
2023-08-12T00:13:51.211Z,17.21
2023-08-12T00:16:19.189Z,17.15
2023-08-12T00:18:48.683Z,17.13
2023-08-12T00:21:16.751Z,17.12
2023-08-12T00:23:45.370Z,17.20
2023-08-12T00:26:13.359Z,17.14
2023-08-12T00:28:41.492Z,17.09
2023-08-12T00:31:09.934Z,17.03
2023-08-12T00:33:37.916Z,16.97
2023-08-12T00:36:08.000Z,16.96
2023-08-12T00:38:35.908Z,16.97
2023-08-12T00:41:03.969Z,16.98
2023-08-12T00:43:31.898Z,16.92
2023-08-12T00:45:59.956Z,16.92
2023-08-12T00:48:28.328Z,16.92
2023-08-12T00:50:56.284Z,16.90
2023-08-12T00:53:25.811Z,16.91
2023-08-12T00:55:53.791Z,16.84
2023-08-12T00:58:21.843Z,16.90
2023-08-12T01:00:49.877Z,16.91
2023-08-12T01:03:18.166Z,16.91
2023-08-12T01:05:46.779Z,16.86
2023-08-12T01:08:14.707Z,16.75
2023-08-12T01:10:51.821Z,16.88
2023-08-12T01:13:32.595Z,16.80
2023-08-12T01:16:04.462Z,16.83
2023-08-12T01:18:33.348Z,16.75
2023-08-12T01:21:04.792Z,16.82
2023-08-12T01:23:34.549Z,16.75
2023-08-12T01:26:02.503Z,16.71
2023-08-12T01:28:30.507Z,16.64
2023-08-12T01:31:06.090Z,16.65
2023-08-12T01:33:41.552Z,16.58
2023-08-12T01:36:14.314Z,16.52
2023-08-12T01:38:45.264Z,16.58
2023-08-12T01:41:14.625Z,16.55
2023-08-12T01:43:43.565Z,16.54
2023-08-12T01:46:12.202Z,16.59
2023-08-12T01:48:40.125Z,16.69
2023-08-12T01:51:09.220Z,16.68
2023-08-12T01:53:37.224Z,16.66
2023-08-12T01:56:06.610Z,16.62
2023-08-12T01:58:34.533Z,16.61
2023-08-12T02:01:02.451Z,16.55
2023-08-12T02:03:30.367Z,16.50
2023-08-12T02:05:58.356Z,16.49
2023-08-12T02:08:26.349Z,16.44
2023-08-12T02:10:54.284Z,16.40
2023-08-12T02:13:23.552Z,16.40
2023-08-12T02:15:51.513Z,16.38
2023-08-12T02:18:19.536Z,16.26
2023-08-12T02:20:49.263Z,16.39
2023-08-12T02:23:17.196Z,16.30
2023-08-12T02:25:45.932Z,16.25
2023-08-12T02:28:13.900Z,16.23
2023-08-12T02:30:44.598Z,16.23
2023-08-12T02:33:12.487Z,16.31
2023-08-12T02:35:40.440Z,16.36
2023-08-12T02:38:08.435Z,16.38
2023-08-12T02:40:36.387Z,16.38
2023-08-12T02:43:04.429Z,16.38
2023-08-12T02:45:32.421Z,16.41
2023-08-12T02:48:01.743Z,16.40
2023-08-12T02:50:29.717Z,16.31
2023-08-12T02:52:57.711Z,16.27
2023-08-12T02:55:25.609Z,16.15
2023-08-12T02:57:53.610Z,16.17
2023-08-12T03:00:21.738Z,16.21
2023-08-12T03:02:49.792Z,16.18
2023-08-12T03:05:19.402Z,16.16
2023-08-12T03:07:50.322Z,16.11
2023-08-12T03:10:18.330Z,16.26
2023-08-12T03:12:46.364Z,16.29
2023-08-12T03:15:14.315Z,16.28
2023-08-12T03:17:42.937Z,16.29
2023-08-12T03:20:11.487Z,16.25
2023-08-12T03:22:40.815Z,16.26
2023-08-12T03:25:09.552Z,16.29
2023-08-12T03:27:37.494Z,16.27
2023-08-12T03:30:05.875Z,16.25
2023-08-12T03:32:34.251Z,16.21
2023-08-12T03:35:02.519Z,16.22
2023-08-12T03:37:30.472Z,16.04
2023-08-12T03:39:59.796Z,15.99
2023-08-12T03:42:27.675Z,15.96
2023-08-12T03:44:55.651Z,15.98
2023-08-12T03:47:25.651Z,15.94
2023-08-12T03:49:58.444Z,15.95
2023-08-12T03:52:26.371Z,15.99
2023-08-12T03:54:55.127Z,16.02
2023-08-12T03:57:26.808Z,16.04
2023-08-12T03:59:54.955Z,16.09
2023-08-12T04:02:23.210Z,16.10
2023-08-12T04:04:54.161Z,16.11
2023-08-12T04:07:22.018Z,15.90
2023-08-12T04:09:50.743Z,16.04
2023-08-12T04:12:18.756Z,15.91
2023-08-12T04:14:48.398Z,15.93
2023-08-12T04:17:16.341Z,15.83
2023-08-12T04:19:44.912Z,15.73
2023-08-12T04:22:12.996Z,15.78
2023-08-12T04:24:40.930Z,15.73
2023-08-12T04:27:09.539Z,15.69
2023-08-12T04:29:38.173Z,15.67
2023-08-12T04:32:08.035Z,15.68
2023-08-12T04:34:36.353Z,15.74
2023-08-12T04:37:04.589Z,15.73
2023-08-12T04:39:33.515Z,15.78
2023-08-12T04:42:01.453Z,15.76
2023-08-12T04:44:29.350Z,15.86
2023-08-12T04:46:57.240Z,15.89
2023-08-12T04:49:26.961Z,16.01
2023-08-12T04:51:54.983Z,16.08
2023-08-12T04:54:22.949Z,16.18
2023-08-12T04:56:50.916Z,16.26
2023-08-12T04:59:19.580Z,16.25
2023-08-12T05:02:02.286Z,16.34
2023-08-12T05:04:33.261Z,16.31
2023-08-12T05:07:01.226Z,16.44
2023-08-12T05:09:29.199Z,16.40
2023-08-12T05:11:57.228Z,16.39
2023-08-12T05:14:25.211Z,16.47
2023-08-12T05:16:53.156Z,16.34
2023-08-12T05:19:21.106Z,16.48
2023-08-12T05:21:50.381Z,16.50
2023-08-12T05:24:18.378Z,16.61
2023-08-12T05:26:46.414Z,16.67
2023-08-12T05:29:14.365Z,16.67
2023-08-12T05:31:42.512Z,16.74
2023-08-12T05:34:10.526Z,16.73
2023-08-12T05:36:38.590Z,16.81
2023-08-12T05:39:08.134Z,16.89
2023-08-12T05:41:36.058Z,16.83
2023-08-12T05:44:04.345Z,16.96
2023-08-12T05:46:32.218Z,16.94
2023-08-12T05:49:00.162Z,16.98
2023-08-12T05:51:30.684Z,17.03
2023-08-12T05:53:58.857Z,17.09
2023-08-12T05:56:28.511Z,17.14
2023-08-12T05:58:56.439Z,17.11
2023-08-12T06:01:24.516Z,16.97
2023-08-12T06:03:52.420Z,16.90
2023-08-12T06:06:20.349Z,16.85
2023-08-12T06:08:48.278Z,16.89
2023-08-12T06:11:16.595Z,16.93
2023-08-12T06:13:45.874Z,17.04
2023-08-12T06:16:13.865Z,17.07
2023-08-12T06:18:41.876Z,17.13
2023-08-12T06:21:09.884Z,17.30
2023-08-12T06:23:38.280Z,17.46
2023-08-12T06:26:06.319Z,17.49
2023-08-12T06:28:34.224Z,17.51
2023-08-12T06:31:03.605Z,17.64
2023-08-12T06:33:31.592Z,17.84
2023-08-12T06:35:59.547Z,17.96
2023-08-12T06:38:27.537Z,17.95
2023-08-12T06:40:55.495Z,18.11
2023-08-12T06:43:23.383Z,18.19
2023-08-12T06:45:54.248Z,18.10
2023-08-12T06:48:23.587Z,18.19
2023-08-12T06:50:55.566Z,18.16
2023-08-12T06:53:23.521Z,18.34
2023-08-12T06:55:51.547Z,18.32
2023-08-12T06:58:19.620Z,18.57
2023-08-12T07:00:47.690Z,18.71
2023-08-12T07:03:15.691Z,18.82
2023-08-12T07:05:45.091Z,18.88
2023-08-12T07:08:13.276Z,19.03
2023-08-12T07:10:42.042Z,19.12
2023-08-12T07:13:10.061Z,19.22
2023-08-12T07:15:38.094Z,19.08
2023-08-12T07:18:07.051Z,19.44
2023-08-12T07:20:35.299Z,19.41
2023-08-12T07:23:04.785Z,19.45
2023-08-12T07:25:32.808Z,19.56
2023-08-12T07:28:01.298Z,19.70
2023-08-12T07:30:29.384Z,19.72
2023-08-12T07:32:57.419Z,19.82
2023-08-12T07:35:25.362Z,19.87
2023-08-12T07:37:53.277Z,19.90
2023-08-12T07:40:22.589Z,20.13
2023-08-12T07:42:50.488Z,20.24
2023-08-12T07:45:18.444Z,20.41
2023-08-12T07:47:46.440Z,20.49
2023-08-12T07:50:14.398Z,20.65
2023-08-12T07:52:42.360Z,20.81
2023-08-12T07:55:10.747Z,20.84
2023-08-12T07:57:40.121Z,20.95
2023-08-12T08:00:11.035Z,21.03
2023-08-12T08:02:42.340Z,21.12
2023-08-12T08:05:10.855Z,20.99
2023-08-12T08:07:38.829Z,21.16
2023-08-12T08:10:07.839Z,21.18
2023-08-12T08:12:35.945Z,21.15
2023-08-12T08:15:05.935Z,21.27
2023-08-12T08:17:35.660Z,21.47
2023-08-12T08:20:07.154Z,21.20
2023-08-12T08:22:35.169Z,21.44
2023-08-12T08:25:03.131Z,21.60
2023-08-12T08:27:31.155Z,21.75
2023-08-12T08:29:59.308Z,21.97
2023-08-12T08:32:28.649Z,22.11
2023-08-12T08:34:56.899Z,22.27
2023-08-12T08:37:25.062Z,22.35
2023-08-12T08:39:53.062Z,22.40
2023-08-12T08:42:23.062Z,22.59
2023-08-12T08:44:54.215Z,22.65
2023-08-12T08:47:27.526Z,22.76
2023-08-12T08:49:58.223Z,22.92
2023-08-12T08:52:26.416Z,22.95
2023-08-12T08:54:54.870Z,22.91
2023-08-12T08:57:25.128Z,22.92
2023-08-12T08:59:59.018Z,22.95
2023-08-12T09:02:28.570Z,23.03
2023-08-12T09:04:59.225Z,23.13
2023-08-12T09:07:27.633Z,23.26
2023-08-12T09:09:57.730Z,23.35
2023-08-12T09:12:27.250Z,23.48
2023-08-12T09:14:55.238Z,23.58
2023-08-12T09:17:23.658Z,23.40
2023-08-12T09:19:52.271Z,23.50
2023-08-12T09:22:21.831Z,23.65
2023-08-12T09:24:52.740Z,23.77
2023-08-12T09:27:20.948Z,24.02
2023-08-12T09:29:48.891Z,24.16
2023-08-12T09:32:21.582Z,24.25
2023-08-12T09:34:50.004Z,24.16
2023-08-12T09:37:18.611Z,24.23
2023-08-12T09:39:49.965Z,24.15
2023-08-12T09:42:18.723Z,24.24
2023-08-12T09:44:47.487Z,23.95
2023-08-12T09:47:15.708Z,24.13
2023-08-12T09:49:43.771Z,24.17
2023-08-12T09:52:11.856Z,24.35
2023-08-12T09:54:40.668Z,24.46
2023-08-12T09:57:12.742Z,24.62
2023-08-12T09:59:47.524Z,24.53
2023-08-12T10:02:19.639Z,24.60
2023-08-12T10:04:51.443Z,24.57
2023-08-12T10:07:20.261Z,24.63
2023-08-12T10:09:48.889Z,24.68
2023-08-12T10:12:20.053Z,24.81
2023-08-12T10:14:49.529Z,24.96
2023-08-12T10:17:29.578Z,25.09
2023-08-12T10:20:09.138Z,25.18
2023-08-12T10:22:38.435Z,25.28
2023-08-12T10:25:06.760Z,25.38
2023-08-12T10:27:36.143Z,25.40
2023-08-12T10:30:05.518Z,25.42
2023-08-12T10:32:34.290Z,25.43
2023-08-12T10:35:04.145Z,25.38
2023-08-12T10:37:35.060Z,25.25
2023-08-12T10:40:08.359Z,25.51
2023-08-12T10:42:44.871Z,25.64
2023-08-12T10:45:13.921Z,25.87
2023-08-12T10:47:43.171Z,26.18
2023-08-12T10:50:20.418Z,26.41
2023-08-12T10:52:49.208Z,26.12
2023-08-12T10:55:22.276Z,26.24
2023-08-12T10:57:56.088Z,26.75
2023-08-12T11:00:26.571Z,27.44
2023-08-12T11:02:55.892Z,28.16
2023-08-12T11:05:23.934Z,28.23
2023-08-12T11:07:59.159Z,28.40
2023-08-12T11:10:30.652Z,28.57
2023-08-12T11:13:01.776Z,28.77
2023-08-12T11:15:34.555Z,29.02
2023-08-12T11:18:05.521Z,28.80
2023-08-12T11:20:34.183Z,29.06
2023-08-12T11:23:02.854Z,29.37
2023-08-12T11:25:32.027Z,29.55
2023-08-12T11:28:01.630Z,29.82
2023-08-12T11:30:32.808Z,30.38
2023-08-12T11:33:04.012Z,30.42
2023-08-12T11:35:32.887Z,30.65
2023-08-12T11:38:01.340Z,30.81
2023-08-12T11:40:30.733Z,30.30
2023-08-12T11:42:59.085Z,29.14
2023-08-12T11:45:29.597Z,29.41
2023-08-12T11:47:57.694Z,29.98
2023-08-12T11:50:28.195Z,29.96
2023-08-12T11:52:58.521Z,29.94
2023-08-12T11:55:27.166Z,30.42
2023-08-12T11:57:55.050Z,30.90
2023-08-12T12:00:24.996Z,31.08
2023-08-12T12:02:56.101Z,30.95
2023-08-12T12:05:25.844Z,30.53
2023-08-12T12:07:54.706Z,30.09
2023-08-12T12:10:23.977Z,29.95
2023-08-12T12:12:51.959Z,29.33
2023-08-12T12:15:20.402Z,28.65
2023-08-12T12:17:50.210Z,28.74
2023-08-12T12:20:20.078Z,28.53
2023-08-12T12:22:49.818Z,28.17
2023-08-12T12:25:20.176Z,28.46
2023-08-12T12:27:49.120Z,28.54
2023-08-12T12:30:18.344Z,28.93
2023-08-12T12:32:47.196Z,29.07
2023-08-12T12:35:15.166Z,29.64
2023-08-12T12:37:44.770Z,30.19
2023-08-12T12:40:13.796Z,30.18
2023-08-12T12:42:41.740Z,29.58
2023-08-12T12:45:11.218Z,29.58
2023-08-12T12:47:39.837Z,30.14
2023-08-12T12:50:09.082Z,30.05
2023-08-12T12:52:37.281Z,30.09
2023-08-12T12:55:07.150Z,30.30
2023-08-12T12:57:35.501Z,30.35
2023-08-12T13:00:05.227Z,29.84
2023-08-12T13:02:33.314Z,29.38
2023-08-12T13:05:01.290Z,28.62
2023-08-12T13:07:29.185Z,28.22
2023-08-12T13:09:57.123Z,28.10
2023-08-12T13:12:26.352Z,28.34
2023-08-12T13:14:54.306Z,29.12
2023-08-12T13:17:22.193Z,30.10
2023-08-12T13:19:50.065Z,30.75
2023-08-12T13:22:18.164Z,31.21
2023-08-12T13:24:46.173Z,31.49
2023-08-12T13:27:15.867Z,31.84
2023-08-12T13:29:45.325Z,31.71
2023-08-12T13:32:13.562Z,32.06
2023-08-12T13:34:41.585Z,31.70
2023-08-12T13:37:10.080Z,31.97
2023-08-12T13:39:38.018Z,31.70
2023-08-12T13:42:05.975Z,30.85
2023-08-12T13:44:33.936Z,30.48
2023-08-12T13:47:03.236Z,29.87
2023-08-12T13:49:31.120Z,29.28
2023-08-12T13:52:00.294Z,29.05
2023-08-12T13:54:28.196Z,28.75
2023-08-12T13:56:56.093Z,28.38
2023-08-12T13:59:24.142Z,28.11
2023-08-12T14:01:52.045Z,28.13
2023-08-12T14:04:21.320Z,28.09
2023-08-12T14:06:50.770Z,27.92
2023-08-12T14:09:21.291Z,27.90
2023-08-12T14:11:49.270Z,27.80
2023-08-12T14:14:17.473Z,27.55
2023-08-12T14:16:45.385Z,27.41
2023-08-12T14:19:13.735Z,27.38
2023-08-12T14:21:42.980Z,27.03
2023-08-12T14:24:10.925Z,27.00
2023-08-12T14:26:39.633Z,27.08
2023-08-12T14:29:07.936Z,27.00
2023-08-12T14:31:36.437Z,27.09
2023-08-12T14:34:05.352Z,27.12
2023-08-12T14:36:33.844Z,27.02
2023-08-12T14:39:03.260Z,26.98
2023-08-12T14:41:31.194Z,26.99
2023-08-12T14:43:59.141Z,27.00
2023-08-12T14:46:27.425Z,27.03
2023-08-12T14:48:57.776Z,27.20
2023-08-12T14:51:25.774Z,27.21
2023-08-12T14:53:53.652Z,27.15
2023-08-12T14:56:22.965Z,27.36
2023-08-12T14:58:52.145Z,27.20
2023-08-12T15:01:20.900Z,26.91
2023-08-12T15:03:49.253Z,26.94
2023-08-12T15:06:18.261Z,26.80
2023-08-12T15:08:46.200Z,26.91
2023-08-12T15:11:14.313Z,26.85
2023-08-12T15:13:44.583Z,26.81
2023-08-12T15:16:13.743Z,26.60
2023-08-12T15:18:43.624Z,26.50
2023-08-12T15:21:11.557Z,26.43
2023-08-12T15:23:39.542Z,26.39
2023-08-12T15:26:07.614Z,26.31
2023-08-12T15:28:35.556Z,26.11
2023-08-12T15:31:05.073Z,26.08
2023-08-12T15:33:33.011Z,25.92
2023-08-12T15:36:00.902Z,25.88
2023-08-12T15:38:28.839Z,25.83
2023-08-12T15:40:56.785Z,25.78
2023-08-12T15:43:24.726Z,25.69
2023-08-12T15:45:52.722Z,25.73
2023-08-12T15:48:22.122Z,25.66
2023-08-12T15:50:50.137Z,25.75
2023-08-12T15:53:18.163Z,25.67
2023-08-12T15:55:49.059Z,25.64
2023-08-12T15:58:19.939Z,25.49
2023-08-12T16:00:49.813Z,25.52
2023-08-12T16:03:18.029Z,25.50
2023-08-12T16:05:47.894Z,25.50
2023-08-12T16:08:16.010Z,25.45
2023-08-12T16:10:43.934Z,25.36
2023-08-12T16:13:11.925Z,25.29
2023-08-12T16:15:39.938Z,25.12
2023-08-12T16:18:08.143Z,25.09
2023-08-12T16:20:36.167Z,25.05
2023-08-12T16:23:06.284Z,25.06
2023-08-12T16:25:34.309Z,25.01
2023-08-12T16:28:02.280Z,25.05
2023-08-12T16:30:30.759Z,24.88
2023-08-12T16:32:58.722Z,24.95
2023-08-12T16:35:26.713Z,24.89
2023-08-12T16:37:55.058Z,24.93
2023-08-12T16:40:24.935Z,24.87
2023-08-12T16:42:52.939Z,24.83
2023-08-12T16:45:21.071Z,24.77
2023-08-12T16:47:49.034Z,24.81
2023-08-12T16:50:17.237Z,24.76
2023-08-12T16:52:45.130Z,24.77
2023-08-12T16:55:13.015Z,24.78
2023-08-12T16:57:42.375Z,24.79
2023-08-12T17:00:11.900Z,24.75
2023-08-12T17:02:39.812Z,24.60
2023-08-12T17:05:08.608Z,24.73
2023-08-12T17:07:36.532Z,24.77
2023-08-12T17:10:05.167Z,24.92
2023-08-12T17:12:33.222Z,24.94
2023-08-12T17:15:02.773Z,24.96
2023-08-12T17:17:30.698Z,24.90
2023-08-12T17:19:58.647Z,24.86
2023-08-12T17:22:26.617Z,24.83
2023-08-12T17:24:54.568Z,24.85
2023-08-12T17:27:22.634Z,24.72
2023-08-12T17:29:50.594Z,24.62
2023-08-12T17:32:20.004Z,24.62
2023-08-12T17:34:47.980Z,24.56
2023-08-12T17:37:15.909Z,24.44
2023-08-12T17:39:43.833Z,24.39
2023-08-12T17:42:11.943Z,24.38
2023-08-12T17:44:40.100Z,24.34
2023-08-12T17:47:08.009Z,24.32
2023-08-12T17:49:37.286Z,24.20
2023-08-12T17:52:05.642Z,24.23
2023-08-12T17:54:33.844Z,24.13
2023-08-12T17:57:01.775Z,24.16
2023-08-12T17:59:29.728Z,24.12
2023-08-12T18:01:57.801Z,24.03
2023-08-12T18:04:25.827Z,24.13
2023-08-12T18:06:55.178Z,24.10
2023-08-12T18:09:23.204Z,24.08
2023-08-12T18:11:51.263Z,24.07
2023-08-12T18:14:22.385Z,24.08
2023-08-12T18:16:50.450Z,24.06
2023-08-12T18:19:18.399Z,24.03
2023-08-12T18:21:46.292Z,24.01
2023-08-12T18:24:16.378Z,24.01
2023-08-12T18:26:44.377Z,23.99
2023-08-12T18:29:12.296Z,24.01
2023-08-12T18:31:40.775Z,23.97
2023-08-12T18:34:09.212Z,23.91
2023-08-12T18:36:37.103Z,23.92
2023-08-12T18:39:05.131Z,23.91
2023-08-12T18:41:34.871Z,23.90
2023-08-12T18:44:02.779Z,23.83
2023-08-12T18:46:30.693Z,23.77
2023-08-12T18:48:58.603Z,23.79
2023-08-12T18:51:26.549Z,23.73
2023-08-12T18:53:56.539Z,23.69
2023-08-12T18:56:25.682Z,23.55
2023-08-12T18:58:54.947Z,23.51
2023-08-12T19:01:23.326Z,23.45
2023-08-12T19:03:51.444Z,23.41
2023-08-12T19:06:19.645Z,23.41
2023-08-12T19:08:47.563Z,23.32
2023-08-12T19:11:15.597Z,23.24
2023-08-12T19:13:43.540Z,23.11
2023-08-12T19:16:12.995Z,22.88
2023-08-12T19:18:40.989Z,22.63
2023-08-12T19:21:08.931Z,22.69
2023-08-12T19:23:36.986Z,22.69
2023-08-12T19:26:05.190Z,22.59
2023-08-12T19:28:35.376Z,22.51
2023-08-12T19:31:03.316Z,22.46
2023-08-12T19:33:35.888Z,22.47
2023-08-12T19:36:03.938Z,22.23
2023-08-12T19:38:31.965Z,22.13
2023-08-12T19:41:00.755Z,22.12
2023-08-12T19:43:28.677Z,22.09
2023-08-12T19:45:56.564Z,22.05
2023-08-12T19:48:24.657Z,22.01
2023-08-12T19:50:55.043Z,22.04
2023-08-12T19:53:23.298Z,21.99
2023-08-12T19:55:51.527Z,21.86
2023-08-12T19:58:19.614Z,21.97
2023-08-12T20:00:47.613Z,21.97
2023-08-12T20:03:15.643Z,22.04
2023-08-12T20:05:43.664Z,22.02
2023-08-12T20:08:13.287Z,21.93
2023-08-12T20:10:41.294Z,21.98
2023-08-12T20:13:09.247Z,21.88
2023-08-12T20:15:37.195Z,21.69
2023-08-12T20:18:05.819Z,21.69
2023-08-12T20:20:34.117Z,21.79
2023-08-12T20:23:05.994Z,21.80
2023-08-12T20:25:36.915Z,21.83
2023-08-12T20:28:05.660Z,21.96
2023-08-12T20:30:34.768Z,21.96
2023-08-12T20:33:03.012Z,21.93
2023-08-12T20:35:31.430Z,21.75
2023-08-12T20:37:59.636Z,21.54
2023-08-12T20:40:27.667Z,21.59
2023-08-12T20:42:57.011Z,21.68
2023-08-12T20:45:25.004Z,21.70
2023-08-12T20:47:53.239Z,21.72
2023-08-12T20:50:21.729Z,21.62
2023-08-12T20:52:49.713Z,21.44
2023-08-12T20:55:17.767Z,21.70
2023-08-12T20:57:47.169Z,21.76
2023-08-12T21:00:17.156Z,21.72
2023-08-12T21:02:46.431Z,21.78
2023-08-12T21:05:14.610Z,21.79
2023-08-12T21:07:42.869Z,21.70
2023-08-12T21:10:11.545Z,21.54
2023-08-12T21:12:39.662Z,21.62
2023-08-12T21:15:08.455Z,21.63
2023-08-12T21:17:37.778Z,21.49
2023-08-12T21:20:06.869Z,21.09
2023-08-12T21:22:34.804Z,21.09
2023-08-12T21:25:02.873Z,21.04
2023-08-12T21:27:30.789Z,21.04
2023-08-12T21:29:58.869Z,21.01
2023-08-12T21:32:26.857Z,20.87
2023-08-12T21:34:56.278Z,20.90
2023-08-12T21:37:24.197Z,20.87
2023-08-12T21:39:52.187Z,20.80
2023-08-12T21:42:20.676Z,20.77
2023-08-12T21:44:48.641Z,20.70
2023-08-12T21:47:16.763Z,20.62
2023-08-12T21:49:46.248Z,20.55
2023-08-12T21:52:15.642Z,20.60
2023-08-12T21:54:44.453Z,20.61
2023-08-12T21:57:12.673Z,20.57
2023-08-12T21:59:41.626Z,20.61
2023-08-12T22:02:11.165Z,20.60
2023-08-12T22:04:41.205Z,20.61
2023-08-12T22:07:09.332Z,20.66
2023-08-12T22:09:38.805Z,20.58
2023-08-12T22:12:07.102Z,20.75
2023-08-12T22:14:40.279Z,20.62
2023-08-12T22:17:08.447Z,20.84
2023-08-12T22:19:36.370Z,20.78
2023-08-12T22:22:17.541Z,20.84
2023-08-12T22:24:48.678Z,20.84
2023-08-12T22:27:16.650Z,20.83
2023-08-12T22:29:44.621Z,20.78
2023-08-12T22:32:12.749Z,20.76
2023-08-12T22:34:41.031Z,20.83
2023-08-12T22:37:11.024Z,20.88
2023-08-12T22:39:39.059Z,20.81
2023-08-12T22:42:08.860Z,20.85
2023-08-12T22:44:36.801Z,20.76
2023-08-12T22:47:05.476Z,20.81
2023-08-12T22:49:33.529Z,20.80
2023-08-12T22:52:01.767Z,20.48
2023-08-12T22:54:30.572Z,20.71
2023-08-12T22:56:58.593Z,20.78
2023-08-12T22:59:28.197Z,20.88
2023-08-12T23:01:56.416Z,20.85
2023-08-12T23:04:24.519Z,20.88
2023-08-12T23:06:55.497Z,21.03
2023-08-12T23:09:23.668Z,20.91
2023-08-12T23:11:52.005Z,20.97
2023-08-12T23:14:20.647Z,20.99
2023-08-12T23:16:49.990Z,20.97
2023-08-12T23:19:18.305Z,20.86
2023-08-12T23:21:46.276Z,20.82
2023-08-12T23:24:14.202Z,20.92
2023-08-12T23:26:42.230Z,20.86
2023-08-12T23:29:10.270Z,20.88
2023-08-12T23:31:38.283Z,20.92
2023-08-12T23:34:07.792Z,20.86
2023-08-12T23:36:35.862Z,20.80
2023-08-12T23:39:04.668Z,20.85
2023-08-12T23:41:33.028Z,20.75
2023-08-12T23:44:01.057Z,20.75
2023-08-12T23:46:29.183Z,20.78
2023-08-12T23:48:57.135Z,20.77
2023-08-12T23:51:26.469Z,20.70
2023-08-12T23:53:54.466Z,20.73
2023-08-12T23:56:22.388Z,20.70
2023-08-12T23:58:50.328Z,20.68
